createdAt,value
2022-08-24T00:00:01.643Z,2
2022-08-24T00:05:01.991Z,2
2022-08-24T00:10:01.491Z,2
2022-08-24T00:15:01.870Z,4
2022-08-24T00:20:02.286Z,3
2022-08-24T00:25:01.754Z,4
2022-08-24T00:30:02.226Z,2
2022-08-24T00:35:01.695Z,2
2022-08-24T00:40:02.242Z,5
2022-08-24T00:45:01.742Z,2
2022-08-24T00:50:02.201Z,3
2022-08-24T00:55:01.711Z,2
2022-08-24T01:00:02.091Z,2
2022-08-24T01:05:01.433Z,3
2022-08-24T01:10:01.814Z,2
2022-08-24T01:15:02.158Z,3
2022-08-24T01:20:01.562Z,2
2022-08-24T01:25:02.015Z,4
2022-08-24T01:30:01.373Z,3
2022-08-24T01:35:02.031Z,3
2022-08-24T01:40:01.470Z,2
2022-08-24T01:45:01.876Z,5
2022-08-24T01:50:02.239Z,4
2022-08-24T01:55:01.705Z,3
2022-08-24T02:00:02.107Z,4
2022-08-24T02:05:01.452Z,5
2022-08-24T02:10:01.823Z,4
2022-08-24T02:15:02.175Z,4
2022-08-24T02:20:01.812Z,4
2022-08-24T02:25:02.283Z,4
2022-08-24T02:30:01.974Z,3
2022-08-24T02:35:01.318Z,3
2022-08-24T02:40:01.766Z,3
2022-08-24T02:45:01.934Z,4
2022-08-24T02:50:02.272Z,5
2022-08-24T02:55:01.614Z,3
2022-08-24T03:00:01.961Z,4
2022-08-24T03:05:01.497Z,4
2022-08-24T03:10:01.878Z,4
2022-08-24T03:15:02.243Z,5
2022-08-24T03:20:01.661Z,6
2022-08-24T03:25:02.054Z,5
2022-08-24T03:30:01.537Z,4
2022-08-24T03:35:01.903Z,3
2022-08-24T03:40:02.338Z,3
2022-08-24T03:45:01.728Z,3
2022-08-24T03:50:02.058Z,4
2022-08-24T03:55:01.538Z,2
2022-08-24T04:00:02.021Z,2
2022-08-24T04:05:01.379Z,4
2022-08-24T04:10:01.756Z,4
2022-08-24T04:15:02.164Z,5
2022-08-24T04:20:01.709Z,4
2022-08-24T04:25:02.077Z,5
2022-08-24T04:30:01.566Z,3
2022-08-24T04:35:01.894Z,3
2022-08-24T04:40:02.776Z,4
2022-08-24T04:45:01.663Z,4
2022-08-24T04:50:02.138Z,5
2022-08-24T04:55:01.506Z,4
2022-08-24T05:00:01.853Z,4
2022-08-24T05:05:02.327Z,4
2022-08-24T05:10:01.709Z,4
2022-08-24T05:15:02.057Z,5
2022-08-24T05:20:01.600Z,3
2022-08-24T05:25:01.954Z,4
2022-08-24T05:30:01.427Z,3
2022-08-24T05:35:01.762Z,3
2022-08-24T05:40:02.252Z,3
2022-08-24T05:45:01.625Z,4
2022-08-24T05:50:01.982Z,5
2022-08-24T05:55:01.454Z,2
2022-08-24T06:00:01.816Z,5
2022-08-24T06:05:02.330Z,4
2022-08-24T06:10:20.253Z,4
2022-08-24T06:15:01.710Z,3
2022-08-24T06:20:02.251Z,2
2022-08-24T06:25:01.720Z,2
2022-08-24T06:30:02.191Z,3
2022-08-24T06:35:01.530Z,4
2022-08-24T06:40:02.431Z,3
2022-08-24T06:45:01.794Z,3
2022-08-24T06:50:02.311Z,3
2022-08-24T06:55:01.789Z,3
2022-08-24T07:00:02.334Z,4
2022-08-24T07:05:01.811Z,4
2022-08-24T07:10:02.319Z,4
2022-08-24T07:15:01.812Z,4
2022-08-24T07:20:02.226Z,2
2022-08-24T07:25:01.711Z,3
2022-08-24T07:30:25.296Z,2
2022-08-24T07:35:01.800Z,3
2022-08-24T07:40:02.410Z,2
2022-08-24T07:45:01.958Z,3
2022-08-24T07:50:01.442Z,2
2022-08-24T07:55:01.785Z,3
2022-08-24T08:00:02.284Z,3
2022-08-24T08:05:01.333Z,3
2022-08-24T08:10:01.921Z,3
2022-08-24T08:15:02.274Z,2
2022-08-24T08:20:01.824Z,2
2022-08-24T08:25:02.292Z,2
2022-08-24T08:30:01.774Z,3
2022-08-24T08:35:02.510Z,2
2022-08-24T08:40:02.160Z,2
2022-08-24T08:45:01.564Z,2
2022-08-24T08:50:02.032Z,3
2022-08-24T08:55:01.505Z,2
2022-08-24T09:00:01.584Z,3
2022-08-24T09:05:02.175Z,2
2022-08-24T09:10:01.727Z,2
2022-08-24T09:15:02.248Z,2
2022-08-24T09:20:01.790Z,2
2022-08-24T09:25:02.275Z,3
2022-08-24T09:30:01.613Z,2
2022-08-24T09:35:01.953Z,2
2022-08-24T09:40:02.089Z,2
2022-08-24T09:45:01.583Z,2
2022-08-24T09:50:01.922Z,2
2022-08-24T09:55:01.731Z,3
2022-08-24T10:00:02.224Z,3
2022-08-24T10:05:01.812Z,2
2022-08-24T10:10:02.408Z,3
2022-08-24T10:15:01.897Z,1
2022-08-24T10:20:01.898Z,2
2022-08-24T10:25:02.376Z,2
2022-08-24T10:30:01.858Z,2
2022-08-24T10:35:02.199Z,3
2022-08-24T10:40:02.816Z,4
2022-08-24T10:45:01.556Z,3
2022-08-24T10:50:01.914Z,3
2022-08-24T10:55:02.381Z,3
2022-08-24T11:00:01.734Z,2
2022-08-24T11:05:02.106Z,3
2022-08-24T11:10:01.504Z,1
2022-08-24T11:15:01.856Z,1
2022-08-24T11:20:02.390Z,3
2022-08-24T11:25:01.856Z,2
2022-08-24T11:30:02.215Z,2
2022-08-24T11:35:01.690Z,3
2022-08-24T11:40:02.133Z,2
2022-08-24T11:45:01.669Z,2
2022-08-24T11:50:02.035Z,2
2022-08-24T11:55:01.391Z,2
2022-08-24T12:00:01.922Z,2
2022-08-24T12:05:02.289Z,4
2022-08-24T12:10:01.794Z,3
2022-08-24T12:15:02.177Z,1
2022-08-24T12:20:01.615Z,8
2022-08-24T12:25:01.952Z,8
2022-08-24T12:30:05.487Z,5
2022-08-24T12:35:02.385Z,7
2022-08-24T12:40:01.963Z,5
2022-08-24T12:45:01.359Z,4
2022-08-24T12:50:01.827Z,3
2022-08-24T12:55:02.246Z,3
2022-08-24T13:00:01.784Z,2
2022-08-24T13:05:02.255Z,3
2022-08-24T13:10:01.758Z,3
2022-08-24T13:15:02.151Z,4
2022-08-24T13:20:01.577Z,4
2022-08-24T13:25:01.929Z,4
2022-08-24T13:30:01.333Z,1
2022-08-24T13:35:01.868Z,4
2022-08-24T13:40:02.434Z,3
2022-08-24T13:45:01.961Z,4
2022-08-24T13:50:01.309Z,3
2022-08-24T13:55:01.647Z,3
2022-08-24T14:00:01.694Z,3
2022-08-24T14:05:02.286Z,3
2022-08-24T14:10:01.737Z,4
2022-08-24T14:15:02.101Z,3
2022-08-24T14:20:01.537Z,4
2022-08-24T14:25:01.902Z,3
2022-08-24T14:30:02.379Z,1
2022-08-24T14:35:01.899Z,3
2022-08-24T14:40:02.527Z,6
2022-08-24T14:45:02.079Z,3
2022-08-24T14:50:01.570Z,3
2022-08-24T14:55:02.037Z,3
2022-08-24T15:00:01.510Z,1
2022-08-24T15:05:02.039Z,2
2022-08-24T15:10:01.608Z,3
2022-08-24T15:15:02.135Z,4
2022-08-24T15:20:01.572Z,2
2022-08-24T15:25:02.036Z,3
2022-08-24T15:30:01.491Z,4
2022-08-24T15:35:02.048Z,3
2022-08-24T15:40:01.742Z,3
2022-08-24T15:45:02.341Z,3
2022-08-24T15:50:01.925Z,2
2022-08-24T15:55:02.411Z,2
2022-08-24T16:00:01.907Z,3
2022-08-24T16:05:02.375Z,3
2022-08-24T16:10:01.833Z,3
2022-08-24T16:15:02.187Z,3
2022-08-24T16:20:01.725Z,3
2022-08-24T16:25:02.151Z,2
2022-08-24T16:30:01.498Z,4
2022-08-24T16:35:02.107Z,5
2022-08-24T16:40:01.615Z,4
2022-08-24T16:45:02.089Z,3
2022-08-24T16:50:01.565Z,3
2022-08-24T16:55:01.935Z,5
2022-08-24T17:00:02.424Z,3
2022-08-24T17:05:01.894Z,4
2022-08-24T17:10:02.408Z,4
2022-08-24T17:15:01.875Z,5
2022-08-24T17:20:01.421Z,4
2022-08-24T17:25:01.894Z,4
2022-08-24T17:30:02.415Z,2
2022-08-24T17:35:01.894Z,4
2022-08-24T17:40:02.524Z,5
2022-08-24T17:45:01.931Z,3
2022-08-24T17:50:06.114Z,3
2022-08-24T17:55:01.857Z,5
2022-08-24T18:00:02.253Z,4
2022-08-24T18:05:01.630Z,5
2022-08-24T18:10:02.158Z,3
2022-08-24T18:15:01.502Z,5
2022-08-24T18:20:01.932Z,5
2022-08-24T18:25:02.405Z,5
2022-08-24T18:30:03.031Z,5
2022-08-24T18:35:01.758Z,4
2022-08-24T18:40:02.340Z,5
2022-08-24T18:45:01.832Z,3
2022-08-24T18:50:02.303Z,4
2022-08-24T18:55:01.837Z,5
2022-08-24T19:00:02.344Z,6
2022-08-24T19:05:01.719Z,5
2022-08-24T19:10:02.219Z,6
2022-08-24T19:15:01.572Z,3
2022-08-24T19:20:01.987Z,6
2022-08-24T19:25:01.462Z,5
2022-08-24T19:30:01.816Z,5
2022-08-24T19:35:02.281Z,4
2022-08-24T19:40:01.862Z,5
2022-08-24T19:45:01.499Z,5
2022-08-24T19:50:01.831Z,6
2022-08-24T19:55:02.185Z,6
2022-08-24T20:00:01.660Z,5
2022-08-24T20:05:02.173Z,5
2022-08-24T20:10:12.468Z,7
2022-08-24T20:15:01.539Z,6
2022-08-24T20:20:01.950Z,6
2022-08-24T20:25:02.358Z,6
2022-08-24T20:30:01.712Z,7
2022-08-24T20:35:02.183Z,5
2022-08-24T20:40:02.031Z,5
2022-08-24T20:45:01.597Z,7
2022-08-24T20:50:02.072Z,5
2022-08-24T20:55:01.445Z,7
2022-08-24T21:00:01.830Z,6
2022-08-24T21:05:02.392Z,8
2022-08-24T21:10:01.909Z,6
2022-08-24T21:15:02.303Z,8
2022-08-24T21:20:02.337Z,7
2022-08-24T21:25:01.729Z,6
2022-08-24T21:30:02.200Z,6
2022-08-24T21:35:01.679Z,5
2022-08-24T21:40:02.272Z,5
2022-08-24T21:45:01.772Z,6
2022-08-24T21:50:02.234Z,7
2022-08-24T21:55:01.576Z,7
2022-08-24T22:00:02.008Z,7
2022-08-24T22:05:02.079Z,6
2022-08-24T22:10:01.594Z,7
2022-08-24T22:15:02.105Z,7
2022-08-24T22:20:02.494Z,7
2022-08-24T22:25:01.873Z,7
2022-08-24T22:30:02.392Z,8
2022-08-24T22:35:01.855Z,8
2022-08-24T22:40:02.455Z,8
2022-08-24T22:45:02.401Z,5
2022-08-24T22:50:01.860Z,7
2022-08-24T22:55:02.332Z,7
2022-08-24T23:00:01.700Z,8
2022-08-24T23:05:02.042Z,8
2022-08-24T23:10:01.445Z,9
2022-08-24T23:15:01.783Z,10
2022-08-24T23:20:02.328Z,7
2022-08-24T23:25:01.683Z,7
2022-08-24T23:30:02.167Z,9
2022-08-24T23:35:01.631Z,8
2022-08-24T23:40:02.221Z,8
2022-08-24T23:45:01.629Z,10
2022-08-24T23:50:01.778Z,9
2022-08-24T23:55:20.607Z,8
